OPA Logo
 
ASOS:
At:2021.02.26 0055 UTC
Wind:330° @ 17-24 KT
Viz: 10 mile(s)
Sky: mostly clear
Temp: 42 F (6 C)
DewP: 23 F (-5 C)
RH: 45%
Baro: 30.13 in.
ob: KBDN 260055Z AUTO 33017G24KT 10SM FEW055 FEW065 06/M05 A3013 RMK AO2

ASOS: KRDM
At:2021.02.25 2356 UTC
Wind:280° @ 22-31 KT
Viz: 10 mile(s)
Sky: clear
Temp: 45.0 F (7.2 C)
DewP: 23.0 F (-5.0 C)
RH: 41%
Baro: 30.09 in.
ob: KRDM 252356Z 28022G31KT 10SM CLR 07/M05 A3009 RMK AO2 PK WND 27038/2339 SLP198 T00721050 10106 20072 55009
Apache-SSL Logo

Valid HTML 4.01!

Central Oregon OPA Chapter

Flyout April 2001 to Tillamook Air Museum:

Click on Images to see image full size

Alien Blimp
Alien Blimp
Dean Cameron comes in peace
Dean Cameron comes in peace
Hanger View
Hanger View
Ann & Michael Bond with Guppy
Ann & Michael Bond with Guppy
Main Lodge at Flying M
Main Lodge at Flying M
Stables at Flying M
Stables at Flying M

Photo Credits: Dean Cameron

Web page by: gem@rellim.com